sensor_id;sensor_type;location;lat;lon;timestamp;pressure;altitude;pressure_sealevel;temperature;humidity
39411;BME280;26579;43.238;23.124;2023-03-15T00:00:17;95833.84;;;9.73;48.12
39411;BME280;26579;43.238;23.124;2023-03-15T00:02:43;95852.13;;;9.81;48.33
39411;BME280;26579;43.238;23.124;2023-03-15T00:05:10;95847.75;;;9.82;48.26
39411;BME280;26579;43.238;23.124;2023-03-15T00:07:36;95838.53;;;9.87;48.18
39411;BME280;26579;43.238;23.124;2023-03-15T00:10:02;95844.75;;;9.77;49.05
39411;BME280;26579;43.238;23.124;2023-03-15T00:12:28;95846.13;;;9.81;48.89
39411;BME280;26579;43.238;23.124;2023-03-15T00:14:53;95836.16;;;9.76;48.65
39411;BME280;26579;43.238;23.124;2023-03-15T00:17:19;95840.34;;;9.59;49.34
39411;BME280;26579;43.238;23.124;2023-03-15T00:19:44;95839.53;;;9.59;49.14
39411;BME280;26579;43.238;23.124;2023-03-15T00:22:10;95841.13;;;9.69;47.86
39411;BME280;26579;43.238;23.124;2023-03-15T00:24:36;95837.41;;;9.72;48.01
39411;BME280;26579;43.238;23.124;2023-03-15T00:27:01;95829.06;;;9.68;48.35
39411;BME280;26579;43.238;23.124;2023-03-15T00:29:27;95829.16;;;9.77;48.94
39411;BME280;26579;43.238;23.124;2023-03-15T00:31:53;95822.41;;;9.66;48.33
39411;BME280;26579;43.238;23.124;2023-03-15T00:34:20;95815.19;;;9.60;48.57
39411;BME280;26579;43.238;23.124;2023-03-15T00:36:46;95814.25;;;9.61;49.13
39411;BME280;26579;43.238;23.124;2023-03-15T00:39:12;95808.88;;;9.62;48.47
39411;BME280;26579;43.238;23.124;2023-03-15T00:41:38;95792.94;;;9.57;48.54
39411;BME280;26579;43.238;23.124;2023-03-15T00:44:04;95801.31;;;9.69;48.17
39411;BME280;26579;43.238;23.124;2023-03-15T00:46:29;95794.47;;;9.68;47.61
39411;BME280;26579;43.238;23.124;2023-03-15T00:48:56;95792.56;;;9.88;48.19
39411;BME280;26579;43.238;23.124;2023-03-15T00:51:23;95792.75;;;9.94;47.33
39411;BME280;26579;43.238;23.124;2023-03-15T00:53:50;95788.09;;;9.80;47.69
39411;BME280;26579;43.238;23.124;2023-03-15T00:56:20;95807.13;;;9.81;48.39
39411;BME280;26579;43.238;23.124;2023-03-15T00:58:46;95790.97;;;9.59;49.18
39411;BME280;26579;43.238;23.124;2023-03-15T01:01:17;95798.44;;;9.72;49.09
39411;BME280;26579;43.238;23.124;2023-03-15T01:03:44;95793.59;;;9.77;48.43
39411;BME280;26579;43.238;23.124;2023-03-15T01:06:24;95798.19;;;9.65;48.41
39411;BME280;26579;43.238;23.124;2023-03-15T01:08:50;95779.47;;;9.44;49.13
39411;BME280;26579;43.238;23.124;2023-03-15T01:11:18;95789.19;;;9.60;49.72
39411;BME280;26579;43.238;23.124;2023-03-15T01:13:45;95782.59;;;9.65;48.86
39411;BME280;26579;43.238;23.124;2023-03-15T01:16:12;95782.53;;;9.57;49.00
39411;BME280;26579;43.238;23.124;2023-03-15T01:18:38;95785.94;;;9.58;48.85
39411;BME280;26579;43.238;23.124;2023-03-15T01:21:11;95757.41;;;9.48;47.95
39411;BME280;26579;43.238;23.124;2023-03-15T01:23:37;95768.34;;;9.51;48.96
39411;BME280;26579;43.238;23.124;2023-03-15T01:26:05;95765.16;;;9.58;48.66
39411;BME280;26579;43.238;23.124;2023-03-15T01:28:31;95769.91;;;9.62;48.02
39411;BME280;26579;43.238;23.124;2023-03-15T01:30:57;95764.28;;;9.67;48.59
39411;BME280;26579;43.238;23.124;2023-03-15T01:33:23;95754.25;;;9.54;49.27
39411;BME280;26579;43.238;23.124;2023-03-15T01:36:03;95742.06;;;9.55;49.93
39411;BME280;26579;43.238;23.124;2023-03-15T01:38:30;95752.97;;;9.58;49.17
39411;BME280;26579;43.238;23.124;2023-03-15T01:40:57;95750.91;;;9.62;48.60
39411;BME280;26579;43.238;23.124;2023-03-15T01:43:25;95743.31;;;9.50;49.18
39411;BME280;26579;43.238;23.124;2023-03-15T01:54:15;95746.28;;;9.73;48.10
39411;BME280;26579;43.238;23.124;2023-03-15T01:56:51;95740.28;;;9.73;48.45
39411;BME280;26579;43.238;23.124;2023-03-15T01:59:24;95732.63;;;9.53;48.74
39411;BME280;26579;43.238;23.124;2023-03-15T02:01:52;95733.59;;;9.52;48.87
39411;BME280;26579;43.238;23.124;2023-03-15T02:04:28;95720.31;;;9.56;48.87
39411;BME280;26579;43.238;23.124;2023-03-15T02:06:57;95719.88;;;9.60;49.73
39411;BME280;26579;43.238;23.124;2023-03-15T02:12:09;95727.66;;;9.42;49.56
39411;BME280;26579;43.238;23.124;2023-03-15T02:14:35;95722.53;;;9.33;50.32
39411;BME280;26579;43.238;23.124;2023-03-15T02:17:03;95715.94;;;9.38;50.13
39411;BME280;26579;43.238;23.124;2023-03-15T02:19:51;95729.50;;;9.50;49.26
39411;BME280;26579;43.238;23.124;2023-03-15T02:23:12;95712.53;;;9.38;49.46
39411;BME280;26579;43.238;23.124;2023-03-15T02:25:41;95714.91;;;9.31;50.20
39411;BME280;26579;43.238;23.124;2023-03-15T02:28:13;95718.66;;;9.19;50.80
39411;BME280;26579;43.238;23.124;2023-03-15T02:30:41;95721.63;;;9.24;49.34
39411;BME280;26579;43.238;23.124;2023-03-15T02:35:48;95729.34;;;9.16;50.21
39411;BME280;26579;43.238;23.124;2023-03-15T02:38:15;95714.53;;;9.26;49.28
39411;BME280;26579;43.238;23.124;2023-03-15T02:40:45;95724.00;;;9.17;50.95
39411;BME280;26579;43.238;23.124;2023-03-15T02:43:17;95716.59;;;9.22;50.77
39411;BME280;26579;43.238;23.124;2023-03-15T02:45:45;95733.13;;;9.21;50.68
39411;BME280;26579;43.238;23.124;2023-03-15T02:48:12;95722.44;;;9.24;49.88
39411;BME280;26579;43.238;23.124;2023-03-15T02:50:38;95717.50;;;9.31;49.62
39411;BME280;26579;43.238;23.124;2023-03-15T02:53:04;95715.19;;;9.28;50.47
39411;BME280;26579;43.238;23.124;2023-03-15T02:55:30;95717.75;;;9.10;50.86
39411;BME280;26579;43.238;23.124;2023-03-15T02:57:56;95719.00;;;9.06;50.79
39411;BME280;26579;43.238;23.124;2023-03-15T03:00:22;95720.84;;;8.96;51.54
39411;BME280;26579;43.238;23.124;2023-03-15T03:02:47;95717.81;;;9.00;51.35
39411;BME280;26579;43.238;23.124;2023-03-15T03:05:14;95716.09;;;8.91;51.98
39411;BME280;26579;43.238;23.124;2023-03-15T03:07:40;95719.38;;;8.93;52.33
39411;BME280;26579;43.238;23.124;2023-03-15T03:10:07;95716.91;;;8.92;52.31
39411;BME280;26579;43.238;23.124;2023-03-15T03:12:43;95729.59;;;8.95;52.01
39411;BME280;26579;43.238;23.124;2023-03-15T03:15:10;95733.38;;;9.00;51.79
39411;BME280;26579;43.238;23.124;2023-03-15T03:17:36;95726.94;;;9.04;51.63
39411;BME280;26579;43.238;23.124;2023-03-15T03:20:10;95726.41;;;9.01;50.53
39411;BME280;26579;43.238;23.124;2023-03-15T03:22:40;95716.00;;;8.83;51.31
39411;BME280;26579;43.238;23.124;2023-03-15T03:25:08;95721.75;;;8.77;52.48
39411;BME280;26579;43.238;23.124;2023-03-15T03:27:33;95725.41;;;8.84;50.92
39411;BME280;26579;43.238;23.124;2023-03-15T03:29:59;95728.56;;;8.78;51.76
39411;BME280;26579;43.238;23.124;2023-03-15T03:32:25;95746.94;;;8.94;52.64
39411;BME280;26579;43.238;23.124;2023-03-15T03:34:51;95718.66;;;8.64;52.98
39411;BME280;26579;43.238;23.124;2023-03-15T03:37:20;95730.31;;;8.87;52.31
39411;BME280;26579;43.238;23.124;2023-03-15T03:39:59;95739.84;;;8.96;51.45
39411;BME280;26579;43.238;23.124;2023-03-15T03:42:26;95736.84;;;8.91;51.02
39411;BME280;26579;43.238;23.124;2023-03-15T03:44:51;95738.47;;;8.92;51.34
39411;BME280;26579;43.238;23.124;2023-03-15T03:47:18;95740.44;;;8.80;52.27
39411;BME280;26579;43.238;23.124;2023-03-15T03:49:44;95740.22;;;8.74;52.54
39411;BME280;26579;43.238;23.124;2023-03-15T03:52:09;95720.84;;;8.68;52.37
39411;BME280;26579;43.238;23.124;2023-03-15T03:54:35;95730.75;;;8.82;52.22
39411;BME280;26579;43.238;23.124;2023-03-15T03:57:01;95724.19;;;8.78;53.04
39411;BME280;26579;43.238;23.124;2023-03-15T03:59:31;95733.63;;;8.79;51.99
39411;BME280;26579;43.238;23.124;2023-03-15T04:02:03;95736.53;;;8.76;52.89
39411;BME280;26579;43.238;23.124;2023-03-15T04:04:30;95730.59;;;8.84;50.94
39411;BME280;26579;43.238;23.124;2023-03-15T04:06:56;95732.66;;;8.80;51.54
39411;BME280;26579;43.238;23.124;2023-03-15T04:09:26;95735.78;;;8.56;51.88
39411;BME280;26579;43.238;23.124;2023-03-15T04:11:53;95740.63;;;8.69;52.85
39411;BME280;26579;43.238;23.124;2023-03-15T04:14:19;95724.06;;;8.52;51.55
39411;BME280;26579;43.238;23.124;2023-03-15T04:16:47;95727.47;;;8.43;53.62
39411;BME280;26579;43.238;23.124;2023-03-15T04:19:15;95728.84;;;8.37;53.15
39411;BME280;26579;43.238;23.124;2023-03-15T04:21:41;95708.66;;;8.31;53.20
39411;BME280;26579;43.238;23.124;2023-03-15T04:24:18;95701.25;;;8.46;52.88
39411;BME280;26579;43.238;23.124;2023-03-15T04:27:07;95716.00;;;8.46;51.71
39411;BME280;26579;43.238;23.124;2023-03-15T04:29:52;95721.91;;;8.38;51.56
39411;BME280;26579;43.238;23.124;2023-03-15T04:32:33;95715.38;;;8.24;52.33
39411;BME280;26579;43.238;23.124;2023-03-15T04:35:22;95716.06;;;8.26;52.48
39411;BME280;26579;43.238;23.124;2023-03-15T04:37:58;95724.28;;;8.12;52.89
39411;BME280;26579;43.238;23.124;2023-03-15T04:40:52;95713.84;;;8.31;52.14
39411;BME280;26579;43.238;23.124;2023-03-15T04:43:29;95721.78;;;8.20;52.35
39411;BME280;26579;43.238;23.124;2023-03-15T04:46:26;95717.69;;;8.27;52.02
39411;BME280;26579;43.238;23.124;2023-03-15T04:49:15;95717.81;;;8.26;51.70
39411;BME280;26579;43.238;23.124;2023-03-15T04:52:00;95715.78;;;8.20;52.04
39411;BME280;26579;43.238;23.124;2023-03-15T04:54:26;95689.56;;;8.23;52.02
39411;BME280;26579;43.238;23.124;2023-03-15T04:57:12;95704.47;;;8.21;52.30
39411;BME280;26579;43.238;23.124;2023-03-15T05:00:01;95705.94;;;8.43;51.99
39411;BME280;26579;43.238;23.124;2023-03-15T05:02:50;95706.84;;;8.51;51.33
39411;BME280;26579;43.238;23.124;2023-03-15T05:05:24;95721.72;;;8.49;50.83
39411;BME280;26579;43.238;23.124;2023-03-15T05:07:50;95721.72;;;8.49;51.50
39411;BME280;26579;43.238;23.124;2023-03-15T05:10:34;95731.88;;;8.43;51.71
39411;BME280;26579;43.238;23.124;2023-03-15T05:13:34;95720.38;;;8.45;51.75
39411;BME280;26579;43.238;23.124;2023-03-15T05:16:11;95710.00;;;8.45;51.80
39411;BME280;26579;43.238;23.124;2023-03-15T05:18:48;95716.00;;;8.46;51.38
39411;BME280;26579;43.238;23.124;2023-03-15T05:21:32;95711.34;;;8.49;51.48
39411;BME280;26579;43.238;23.124;2023-03-15T05:24:17;95711.91;;;8.53;51.63
39411;BME280;26579;43.238;23.124;2023-03-15T05:27:10;95697.97;;;8.54;51.04
39411;BME280;26579;43.238;23.124;2023-03-15T05:30:06;95706.38;;;8.66;50.69
39411;BME280;26579;43.238;23.124;2023-03-15T05:32:51;95695.00;;;8.76;50.33
39411;BME280;26579;43.238;23.124;2023-03-15T05:35:37;95692.69;;;8.73;50.41
39411;BME280;26579;43.238;23.124;2023-03-15T05:38:28;95679.09;;;8.61;51.09
39411;BME280;26579;43.238;23.124;2023-03-15T05:41:05;95670.41;;;8.98;49.83
39411;BME280;26579;43.238;23.124;2023-03-15T05:43:36;95680.00;;;9.16;49.50
39411;BME280;26579;43.238;23.124;2023-03-15T05:46:28;95665.75;;;9.02;49.27
39411;BME280;26579;43.238;23.124;2023-03-15T05:48:57;95656.91;;;9.13;49.52
39411;BME280;26579;43.238;23.124;2023-03-15T05:51:37;95655.16;;;9.31;49.11
39411;BME280;26579;43.238;23.124;2023-03-15T05:54:23;95637.69;;;9.41;49.05
39411;BME280;26579;43.238;23.124;2023-03-15T05:57:15;95660.28;;;9.41;49.19
39411;BME280;26579;43.238;23.124;2023-03-15T05:59:56;95665.53;;;9.49;48.65
39411;BME280;26579;43.238;23.124;2023-03-15T06:02:44;95667.47;;;9.47;48.75
39411;BME280;26579;43.238;23.124;2023-03-15T06:05:31;95660.66;;;9.46;48.99
39411;BME280;26579;43.238;23.124;2023-03-15T06:08:01;95655.53;;;9.54;49.13
39411;BME280;26579;43.238;23.124;2023-03-15T06:10:27;95660.84;;;9.52;48.45
39411;BME280;26579;43.238;23.124;2023-03-15T06:12:55;95667.94;;;9.68;47.82
39411;BME280;26579;43.238;23.124;2023-03-15T06:15:22;95661.41;;;9.82;47.36
39411;BME280;26579;43.238;23.124;2023-03-15T06:17:49;95663.06;;;9.91;47.28
39411;BME280;26579;43.238;23.124;2023-03-15T06:20:16;95651.06;;;9.90;46.92
39411;BME280;26579;43.238;23.124;2023-03-15T06:22:42;95654.22;;;9.76;47.80
39411;BME280;26579;43.238;23.124;2023-03-15T06:25:20;95660.97;;;10.13;47.18
39411;BME280;26579;43.238;23.124;2023-03-15T06:27:46;95662.91;;;10.87;45.18
39411;BME280;26579;43.238;23.124;2023-03-15T06:30:12;95664.81;;;11.77;43.27
39411;BME280;26579;43.238;23.124;2023-03-15T06:32:38;95648.38;;;11.76;43.07
39411;BME280;26579;43.238;23.124;2023-03-15T06:35:04;95672.16;;;11.49;44.12
39411;BME280;26579;43.238;23.124;2023-03-15T06:37:30;95688.28;;;11.52;43.24
39411;BME280;26579;43.238;23.124;2023-03-15T06:39:56;95666.75;;;11.34;42.72
39411;BME280;26579;43.238;23.124;2023-03-15T06:42:21;95667.25;;;11.21;43.18
39411;BME280;26579;43.238;23.124;2023-03-15T06:44:47;95690.31;;;11.08;41.95
39411;BME280;26579;43.238;23.124;2023-03-15T06:47:13;95693.72;;;11.00;42.93
39411;BME280;26579;43.238;23.124;2023-03-15T06:49:39;95683.28;;;10.92;43.39
39411;BME280;26579;43.238;23.124;2023-03-15T06:52:05;95669.09;;;10.86;42.60
39411;BME280;26579;43.238;23.124;2023-03-15T06:54:31;95685.75;;;11.02;42.26
39411;BME280;26579;43.238;23.124;2023-03-15T06:56:58;95682.81;;;11.05;42.78
39411;BME280;26579;43.238;23.124;2023-03-15T06:59:24;95679.28;;;11.14;41.71
39411;BME280;26579;43.238;23.124;2023-03-15T07:01:49;95685.47;;;11.21;41.78
39411;BME280;26579;43.238;23.124;2023-03-15T07:04:15;95680.97;;;11.56;41.27
39411;BME280;26579;43.238;23.124;2023-03-15T07:06:40;95680.13;;;11.47;41.13
39411;BME280;26579;43.238;23.124;2023-03-15T07:09:06;95677.34;;;11.32;40.59
39411;BME280;26579;43.238;23.124;2023-03-15T07:11:32;95669.84;;;11.21;40.64
39411;BME280;26579;43.238;23.124;2023-03-15T07:13:58;95672.16;;;11.32;40.88
39411;BME280;26579;43.238;23.124;2023-03-15T07:16:24;95670.53;;;11.56;39.58
39411;BME280;26579;43.238;23.124;2023-03-15T07:18:51;95663.22;;;11.76;39.28
39411;BME280;26579;43.238;23.124;2023-03-15T07:21:17;95652.59;;;11.77;39.50
39411;BME280;26579;43.238;23.124;2023-03-15T07:23:44;95658.66;;;12.03;37.33
39411;BME280;26579;43.238;23.124;2023-03-15T07:26:09;95657.66;;;12.59;37.50
39411;BME280;26579;43.238;23.124;2023-03-15T07:28:35;95652.97;;;13.17;36.58
39411;BME280;26579;43.238;23.124;2023-03-15T07:31:03;95658.63;;;13.75;35.53
39411;BME280;26579;43.238;23.124;2023-03-15T07:33:31;95644.97;;;14.55;34.92
39411;BME280;26579;43.238;23.124;2023-03-15T07:35:57;95632.69;;;15.07;33.28
39411;BME280;26579;43.238;23.124;2023-03-15T07:38:25;95643.88;;;15.58;33.01
39411;BME280;26579;43.238;23.124;2023-03-15T07:40:51;95630.81;;;15.65;30.24
39411;BME280;26579;43.238;23.124;2023-03-15T07:43:17;95637.41;;;16.04;30.19
39411;BME280;26579;43.238;23.124;2023-03-15T07:45:44;95619.66;;;16.06;31.14
39411;BME280;26579;43.238;23.124;2023-03-15T07:48:10;95626.06;;;16.32;30.15
39411;BME280;26579;43.238;23.124;2023-03-15T07:50:36;95623.94;;;16.14;29.04
39411;BME280;26579;43.238;23.124;2023-03-15T07:53:05;95629.00;;;16.15;29.26
39411;BME280;26579;43.238;23.124;2023-03-15T07:55:34;95631.50;;;15.95;29.82
39411;BME280;26579;43.238;23.124;2023-03-15T07:58:00;95630.09;;;15.99;29.19
39411;BME280;26579;43.238;23.124;2023-03-15T08:00:28;95620.75;;;16.18;28.80
39411;BME280;26579;43.238;23.124;2023-03-15T08:02:54;95603.78;;;16.56;28.38
39411;BME280;26579;43.238;23.124;2023-03-15T08:05:20;95614.88;;;16.58;28.17
39411;BME280;26579;43.238;23.124;2023-03-15T08:07:47;95612.88;;;15.90;28.57
39411;BME280;26579;43.238;23.124;2023-03-15T08:10:14;95615.88;;;15.66;29.21
39411;BME280;26579;43.238;23.124;2023-03-15T08:12:40;95620.97;;;16.58;28.03
39411;BME280;26579;43.238;23.124;2023-03-15T08:15:06;95626.63;;;17.10;27.07
39411;BME280;26579;43.238;23.124;2023-03-15T08:17:32;95624.41;;;17.07;27.72
39411;BME280;26579;43.238;23.124;2023-03-15T08:19:58;95619.75;;;16.26;28.31
39411;BME280;26579;43.238;23.124;2023-03-15T08:22:23;95608.66;;;16.59;28.67
39411;BME280;26579;43.238;23.124;2023-03-15T08:24:49;95615.75;;;17.26;27.44
39411;BME280;26579;43.238;23.124;2023-03-15T08:27:15;95618.44;;;17.73;27.00
39411;BME280;26579;43.238;23.124;2023-03-15T08:29:40;95618.06;;;17.69;27.20
39411;BME280;26579;43.238;23.124;2023-03-15T08:32:06;95613.19;;;17.39;27.30
39411;BME280;26579;43.238;23.124;2023-03-15T08:34:35;95618.72;;;16.96;27.82
39411;BME280;26579;43.238;23.124;2023-03-15T08:37:00;95621.09;;;17.66;27.76
39411;BME280;26579;43.238;23.124;2023-03-15T08:39:26;95609.13;;;17.77;27.11
39411;BME280;26579;43.238;23.124;2023-03-15T08:41:52;95612.38;;;17.52;27.52
39411;BME280;26579;43.238;23.124;2023-03-15T08:44:17;95607.09;;;17.52;27.33
39411;BME280;26579;43.238;23.124;2023-03-15T08:46:43;95594.94;;;17.45;27.74
39411;BME280;26579;43.238;23.124;2023-03-15T08:49:09;95587.81;;;17.05;27.81
39411;BME280;26579;43.238;23.124;2023-03-15T08:51:34;95587.13;;;16.77;28.33
39411;BME280;26579;43.238;23.124;2023-03-15T08:54:00;95608.81;;;16.16;29.24
39411;BME280;26579;43.238;23.124;2023-03-15T08:56:26;95605.91;;;16.80;28.85
39411;BME280;26579;43.238;23.124;2023-03-15T08:58:51;95603.78;;;16.56;28.13
39411;BME280;26579;43.238;23.124;2023-03-15T09:01:17;95616.72;;;16.64;27.79
39411;BME280;26579;43.238;23.124;2023-03-15T09:03:42;95613.28;;;15.94;28.48
39411;BME280;26579;43.238;23.124;2023-03-15T09:06:08;95605.09;;;15.75;29.27
39411;BME280;26579;43.238;23.124;2023-03-15T09:08:34;95610.66;;;15.66;30.04
39411;BME280;26579;43.238;23.124;2023-03-15T09:11:00;95623.56;;;15.89;29.08
39411;BME280;26579;43.238;23.124;2023-03-15T09:13:27;95619.31;;;16.50;27.89
39411;BME280;26579;43.238;23.124;2023-03-15T09:15:53;95614.16;;;17.32;27.32
39411;BME280;26579;43.238;23.124;2023-03-15T09:18:20;95610.78;;;17.98;26.43
39411;BME280;26579;43.238;23.124;2023-03-15T09:20:46;95623.53;;;18.07;26.05
39411;BME280;26579;43.238;23.124;2023-03-15T09:23:12;95624.53;;;17.60;25.96
39411;BME280;26579;43.238;23.124;2023-03-15T09:25:38;95616.22;;;17.56;26.30
39411;BME280;26579;43.238;23.124;2023-03-15T09:28:07;95609.94;;;17.37;26.27
39411;BME280;26579;43.238;23.124;2023-03-15T09:30:35;95620.84;;;17.48;26.45
39411;BME280;26579;43.238;23.124;2023-03-15T09:33:02;95611.97;;;17.75;26.82
39411;BME280;26579;43.238;23.124;2023-03-15T09:35:28;95596.41;;;17.87;26.85
39411;BME280;26579;43.238;23.124;2023-03-15T09:37:54;95619.66;;;17.63;26.53
39411;BME280;26579;43.238;23.124;2023-03-15T09:40:29;95624.28;;;17.28;25.97
39411;BME280;26579;43.238;23.124;2023-03-15T09:51:12;95643.72;;;16.44;28.31
39411;BME280;26579;43.238;23.124;2023-03-15T09:56:25;95635.63;;;16.11;29.12
39411;BME280;26579;43.238;23.124;2023-03-15T09:58:56;95641.88;;;15.82;29.38
39411;BME280;26579;43.238;23.124;2023-03-15T10:01:30;95646.47;;;15.58;30.32
39411;BME280;26579;43.238;23.124;2023-03-15T10:03:56;95651.75;;;15.37;31.34
39411;BME280;26579;43.238;23.124;2023-03-15T10:06:27;95649.81;;;15.09;30.63
39411;BME280;26579;43.238;23.124;2023-03-15T10:08:55;95631.63;;;15.01;31.83
39411;BME280;26579;43.238;23.124;2023-03-15T10:16:39;95654.94;;;14.22;33.87
39411;BME280;26579;43.238;23.124;2023-03-15T10:24:18;95652.84;;;13.65;35.78
39411;BME280;26579;43.238;23.124;2023-03-15T10:26:45;95657.69;;;13.53;35.95
39411;BME280;26579;43.238;23.124;2023-03-15T10:29:16;95660.84;;;13.40;35.86
39411;BME280;26579;43.238;23.124;2023-03-15T10:31:44;95641.75;;;13.40;36.38
39411;BME280;26579;43.238;23.124;2023-03-15T10:34:10;95652.50;;;13.45;36.10
39411;BME280;26579;43.238;23.124;2023-03-15T10:36:36;95639.09;;;13.17;37.08
39411;BME280;26579;43.238;23.124;2023-03-15T10:39:09;95650.28;;;13.33;37.13
39411;BME280;26579;43.238;23.124;2023-03-15T10:41:44;95649.88;;;13.45;36.99
39411;BME280;26579;43.238;23.124;2023-03-15T10:44:17;95648.78;;;13.39;37.37
39411;BME280;26579;43.238;23.124;2023-03-15T10:47:13;95662.97;;;13.68;36.99
39411;BME280;26579;43.238;23.124;2023-03-15T10:49:40;95655.78;;;13.47;37.58
39411;BME280;26579;43.238;23.124;2023-03-15T10:52:33;95660.56;;;13.35;38.20
39411;BME280;26579;43.238;23.124;2023-03-15T10:55:02;95663.41;;;13.71;37.92
39411;BME280;26579;43.238;23.124;2023-03-15T10:57:34;95665.09;;;14.02;37.99
39411;BME280;26579;43.238;23.124;2023-03-15T11:00:03;95671.75;;;13.90;37.71
39411;BME280;26579;43.238;23.124;2023-03-15T11:02:29;95656.09;;;13.67;37.98
39411;BME280;26579;43.238;23.124;2023-03-15T11:05:09;95650.31;;;13.94;38.10
39411;BME280;26579;43.238;23.124;2023-03-15T11:07:53;95671.25;;;14.09;38.09
39411;BME280;26579;43.238;23.124;2023-03-15T11:10:24;95669.75;;;14.30;38.34
39411;BME280;26579;43.238;23.124;2023-03-15T11:13:08;95671.00;;;14.34;37.73
39411;BME280;26579;43.238;23.124;2023-03-15T11:15:34;95667.28;;;14.28;37.83
39411;BME280;26579;43.238;23.124;2023-03-15T11:17:59;95668.56;;;14.17;37.60
39411;BME280;26579;43.238;23.124;2023-03-15T11:20:35;95678.09;;;13.95;38.09
39411;BME280;26579;43.238;23.124;2023-03-15T11:23:37;95670.06;;;13.59;39.81
39411;BME280;26579;43.238;23.124;2023-03-15T11:26:04;95661.16;;;13.45;39.29
39411;BME280;26579;43.238;23.124;2023-03-15T11:28:34;95654.72;;;13.33;39.96
39411;BME280;26579;43.238;23.124;2023-03-15T11:31:00;95666.28;;;13.39;39.76
39411;BME280;26579;43.238;23.124;2023-03-15T11:33:37;95678.00;;;13.43;39.74
39411;BME280;26579;43.238;23.124;2023-03-15T11:36:07;95675.56;;;13.41;39.80
39411;BME280;26579;43.238;23.124;2023-03-15T11:38:40;95674.22;;;13.45;40.33
39411;BME280;26579;43.238;23.124;2023-03-15T11:44:27;95654.34;;;13.82;39.12
39411;BME280;26579;43.238;23.124;2023-03-15T11:49:53;95669.44;;;13.72;38.56
39411;BME280;26579;43.238;23.124;2023-03-15T11:52:21;95675.63;;;13.79;39.52
39411;BME280;26579;43.238;23.124;2023-03-15T11:54:48;95650.09;;;13.81;38.24
39411;BME280;26579;43.238;23.124;2023-03-15T11:57:34;95659.84;;;13.87;38.12
39411;BME280;26579;43.238;23.124;2023-03-15T12:02:49;95659.44;;;13.75;38.25
39411;BME280;26579;43.238;23.124;2023-03-15T12:09:03;95656.22;;;13.73;37.88
39411;BME280;26579;43.238;23.124;2023-03-15T12:16:31;95654.47;;;13.66;37.30
39411;BME280;26579;43.238;23.124;2023-03-15T12:18:58;95645.97;;;13.64;37.31
39411;BME280;26579;43.238;23.124;2023-03-15T12:24:01;95641.97;;;13.76;37.20
39411;BME280;26579;43.238;23.124;2023-03-15T12:26:40;95654.00;;;14.00;37.16
39411;BME280;26579;43.238;23.124;2023-03-15T12:29:24;95659.72;;;14.18;37.24
39411;BME280;26579;43.238;23.124;2023-03-15T12:34:33;95648.63;;;14.31;35.69
39411;BME280;26579;43.238;23.124;2023-03-15T12:37:05;95647.91;;;14.22;35.99
39411;BME280;26579;43.238;23.124;2023-03-15T12:42:03;95641.03;;;14.36;36.55
39411;BME280;26579;43.238;23.124;2023-03-15T12:47:02;95642.34;;;14.55;34.98
39411;BME280;26579;43.238;23.124;2023-03-15T12:52:39;95629.47;;;14.45;34.67
39411;BME280;26579;43.238;23.124;2023-03-15T12:55:12;95628.59;;;14.38;35.27
39411;BME280;26579;43.238;23.124;2023-03-15T12:57:46;95611.34;;;14.29;35.48
39411;BME280;26579;43.238;23.124;2023-03-15T13:00:16;95614.13;;;14.27;34.88
39411;BME280;26579;43.238;23.124;2023-03-15T13:02:47;95617.38;;;14.44;35.66
39411;BME280;26579;43.238;23.124;2023-03-15T13:05:23;95620.72;;;14.68;34.37
39411;BME280;26579;43.238;23.124;2023-03-15T13:07:57;95621.97;;;14.87;34.40
39411;BME280;26579;43.238;23.124;2023-03-15T13:13:33;95618.63;;;14.93;33.63
39411;BME280;26579;43.238;23.124;2023-03-15T13:30:36;95622.84;;;14.58;34.24
39411;BME280;26579;43.238;23.124;2023-03-15T13:33:25;95619.94;;;14.53;34.42
39411;BME280;26579;43.238;23.124;2023-03-15T13:36:00;95623.88;;;14.34;34.68
39411;BME280;26579;43.238;23.124;2023-03-15T13:38:32;95632.56;;;14.34;34.65
39411;BME280;26579;43.238;23.124;2023-03-15T13:41:01;95626.78;;;14.24;34.50
39411;BME280;26579;43.238;23.124;2023-03-15T13:43:34;95628.50;;;14.17;34.81
39411;BME280;26579;43.238;23.124;2023-03-15T13:46:00;95614.31;;;13.96;34.69
39411;BME280;26579;43.238;23.124;2023-03-15T13:48:31;95633.66;;;13.87;35.24
39411;BME280;26579;43.238;23.124;2023-03-15T13:51:06;95632.56;;;13.81;35.76
39411;BME280;26579;43.238;23.124;2023-03-15T13:53:37;95636.25;;;13.72;35.73
39411;BME280;26579;43.238;23.124;2023-03-15T13:56:08;95642.81;;;13.30;36.32
39411;BME280;26579;43.238;23.124;2023-03-15T13:58:36;95648.22;;;13.21;36.43
39411;BME280;26579;43.238;23.124;2023-03-15T14:01:05;95651.34;;;13.16;36.73
39411;BME280;26579;43.238;23.124;2023-03-15T14:03:33;95644.66;;;13.13;38.56
39411;BME280;26579;43.238;23.124;2023-03-15T14:05:59;95651.59;;;13.06;36.88
39411;BME280;26579;43.238;23.124;2023-03-15T14:08:30;95653.91;;;13.01;37.00
39411;BME280;26579;43.238;23.124;2023-03-15T14:13:26;95651.78;;;12.97;37.37
39411;BME280;26579;43.238;23.124;2023-03-15T14:16:01;95646.72;;;13.03;37.30
39411;BME280;26579;43.238;23.124;2023-03-15T14:18:38;95655.47;;;13.10;37.40
39411;BME280;26579;43.238;23.124;2023-03-15T14:21:19;95656.97;;;13.05;37.41
39411;BME280;26579;43.238;23.124;2023-03-15T14:23:47;95644.59;;;12.99;37.73
39411;BME280;26579;43.238;23.124;2023-03-15T14:26:35;95648.44;;;13.11;36.88
39411;BME280;26579;43.238;23.124;2023-03-15T14:29:10;95622.19;;;13.04;36.98
39411;BME280;26579;43.238;23.124;2023-03-15T14:31:46;95632.72;;;12.88;37.06
39411;BME280;26579;43.238;23.124;2023-03-15T14:36:49;95633.94;;;12.77;37.57
39411;BME280;26579;43.238;23.124;2023-03-15T14:39:30;95641.19;;;12.59;37.85
39411;BME280;26579;43.238;23.124;2023-03-15T14:41:56;95636.53;;;12.38;38.46